sensor_id;sensor_type;location;lat;lon;timestamp;temperature;humidity
9901;DHT22;4989;48.772;9.154;2023-11-19T00:00:20;8.70;99.90
9901;DHT22;4989;48.772;9.154;2023-11-19T00:05:22;8.70;99.90
9901;DHT22;4989;48.772;9.154;2023-11-19T00:10:24;8.70;99.90
9901;DHT22;4989;48.772;9.154;2023-11-19T00:15:27;8.90;99.90
9901;DHT22;4989;48.772;9.154;2023-11-19T00:20:30;9.10;99.90
9901;DHT22;4989;48.772;9.154;2023-11-19T00:25:32;9.20;99.90
9901;DHT22;4989;48.772;9.154;2023-11-19T00:30:35;9.50;99.90
9901;DHT22;4989;48.772;9.154;2023-11-19T00:35:37;9.60;99.90
9901;DHT22;4989;48.772;9.154;2023-11-19T00:40:39;9.70;99.90
9901;DHT22;4989;48.772;9.154;2023-11-19T00:45:42;9.80;99.90
9901;DHT22;4989;48.772;9.154;2023-11-19T00:50:45;9.80;99.90
9901;DHT22;4989;48.772;9.154;2023-11-19T00:55:48;9.70;99.90
9901;DHT22;4989;48.772;9.154;2023-11-19T01:00:50;9.80;99.90
9901;DHT22;4989;48.772;9.154;2023-11-19T01:05:53;9.90;99.90
9901;DHT22;4989;48.772;9.154;2023-11-19T01:10:55;10.10;99.90
9901;DHT22;4989;48.772;9.154;2023-11-19T01:15:58;10.10;99.90
9901;DHT22;4989;48.772;9.154;2023-11-19T01:21:00;10.20;99.90
9901;DHT22;4989;48.772;9.154;2023-11-19T01:26:02;10.30;99.90
9901;DHT22;4989;48.772;9.154;2023-11-19T01:31:05;10.40;99.90
9901;DHT22;4989;48.772;9.154;2023-11-19T01:36:13;10.50;99.90
9901;DHT22;4989;48.772;9.154;2023-11-19T01:41:16;10.60;99.90
9901;DHT22;4989;48.772;9.154;2023-11-19T01:46:18;10.60;99.90
9901;DHT22;4989;48.772;9.154;2023-11-19T01:51:21;10.70;99.90
9901;DHT22;4989;48.772;9.154;2023-11-19T01:56:25;10.70;99.90
9901;DHT22;4989;48.772;9.154;2023-11-19T02:01:29;10.70;99.90
9901;DHT22;4989;48.772;9.154;2023-11-19T02:06:33;10.60;99.90
9901;DHT22;4989;48.772;9.154;2023-11-19T02:11:37;10.80;99.90
9901;DHT22;4989;48.772;9.154;2023-11-19T02:16:42;10.80;99.90
9901;DHT22;4989;48.772;9.154;2023-11-19T02:21:44;11.00;99.90
9901;DHT22;4989;48.772;9.154;2023-11-19T02:26:58;11.00;99.90
9901;DHT22;4989;48.772;9.154;2023-11-19T02:32:07;11.10;99.90
9901;DHT22;4989;48.772;9.154;2023-11-19T02:37:11;11.20;99.90
9901;DHT22;4989;48.772;9.154;2023-11-19T02:42:14;11.10;99.90
9901;DHT22;4989;48.772;9.154;2023-11-19T02:47:17;11.20;99.90
9901;DHT22;4989;48.772;9.154;2023-11-19T02:52:21;11.10;99.90
9901;DHT22;4989;48.772;9.154;2023-11-19T02:57:23;11.10;99.90
9901;DHT22;4989;48.772;9.154;2023-11-19T03:02:26;11.20;99.90
9901;DHT22;4989;48.772;9.154;2023-11-19T03:07:36;11.10;99.90
9901;DHT22;4989;48.772;9.154;2023-11-19T03:12:39;11.20;99.90
9901;DHT22;4989;48.772;9.154;2023-11-19T03:17:42;11.20;99.90
9901;DHT22;4989;48.772;9.154;2023-11-19T03:22:45;11.30;99.90
9901;DHT22;4989;48.772;9.154;2023-11-19T03:27:48;11.40;99.90
9901;DHT22;4989;48.772;9.154;2023-11-19T03:32:50;11.40;99.90
9901;DHT22;4989;48.772;9.154;2023-11-19T03:37:53;11.40;99.90
9901;DHT22;4989;48.772;9.154;2023-11-19T03:42:58;11.40;99.90
9901;DHT22;4989;48.772;9.154;2023-11-19T03:48:01;11.30;99.90
9901;DHT22;4989;48.772;9.154;2023-11-19T03:53:03;11.30;99.90
9901;DHT22;4989;48.772;9.154;2023-11-19T03:58:06;11.40;99.90
9901;DHT22;4989;48.772;9.154;2023-11-19T04:03:08;11.40;99.90
9901;DHT22;4989;48.772;9.154;2023-11-19T04:08:11;11.30;99.90
9901;DHT22;4989;48.772;9.154;2023-11-19T04:13:13;11.40;99.90
9901;DHT22;4989;48.772;9.154;2023-11-19T04:18:16;11.30;99.90
9901;DHT22;4989;48.772;9.154;2023-11-19T04:23:19;11.30;99.90
9901;DHT22;4989;48.772;9.154;2023-11-19T04:28:22;11.30;99.90
9901;DHT22;4989;48.772;9.154;2023-11-19T04:33:24;11.30;99.90
9901;DHT22;4989;48.772;9.154;2023-11-19T04:38:27;11.30;99.90
9901;DHT22;4989;48.772;9.154;2023-11-19T04:43:29;11.30;99.90
9901;DHT22;4989;48.772;9.154;2023-11-19T04:48:31;11.40;99.90
9901;DHT22;4989;48.772;9.154;2023-11-19T04:53:43;11.40;99.90
9901;DHT22;4989;48.772;9.154;2023-11-19T04:58:45;11.40;99.90
9901;DHT22;4989;48.772;9.154;2023-11-19T05:03:47;11.40;99.90
9901;DHT22;4989;48.772;9.154;2023-11-19T05:08:49;11.50;99.90
9901;DHT22;4989;48.772;9.154;2023-11-19T05:13:52;11.50;99.90
9901;DHT22;4989;48.772;9.154;2023-11-19T05:18:54;11.60;99.90
9901;DHT22;4989;48.772;9.154;2023-11-19T05:23:56;11.60;99.90
9901;DHT22;4989;48.772;9.154;2023-11-19T05:28:58;11.60;99.90
9901;DHT22;4989;48.772;9.154;2023-11-19T05:34:01;11.70;99.90
9901;DHT22;4989;48.772;9.154;2023-11-19T05:39:03;11.70;99.90
9901;DHT22;4989;48.772;9.154;2023-11-19T05:44:06;11.70;99.90
9901;DHT22;4989;48.772;9.154;2023-11-19T05:49:09;11.80;99.90
9901;DHT22;4989;48.772;9.154;2023-11-19T05:54:11;11.80;99.90
9901;DHT22;4989;48.772;9.154;2023-11-19T05:59:15;11.80;99.90
9901;DHT22;4989;48.772;9.154;2023-11-19T06:04:19;11.80;99.90
9901;DHT22;4989;48.772;9.154;2023-11-19T06:09:21;11.70;99.90
9901;DHT22;4989;48.772;9.154;2023-11-19T06:14:26;11.70;99.90
9901;DHT22;4989;48.772;9.154;2023-11-19T06:19:28;11.70;99.90
9901;DHT22;4989;48.772;9.154;2023-11-19T06:24:31;11.70;99.90
9901;DHT22;4989;48.772;9.154;2023-11-19T06:29:34;11.70;99.90
9901;DHT22;4989;48.772;9.154;2023-11-19T06:34:36;11.70;99.90
9901;DHT22;4989;48.772;9.154;2023-11-19T06:39:38;11.80;99.90
9901;DHT22;4989;48.772;9.154;2023-11-19T06:44:40;11.80;99.90
9901;DHT22;4989;48.772;9.154;2023-11-19T06:49:45;11.80;99.90
9901;DHT22;4989;48.772;9.154;2023-11-19T06:54:47;11.90;99.90
9901;DHT22;4989;48.772;9.154;2023-11-19T06:59:50;11.90;99.90
9901;DHT22;4989;48.772;9.154;2023-11-19T07:04:52;11.90;99.90
9901;DHT22;4989;48.772;9.154;2023-11-19T07:09:54;11.90;99.90
9901;DHT22;4989;48.772;9.154;2023-11-19T07:14:56;11.80;99.90
9901;DHT22;4989;48.772;9.154;2023-11-19T07:19:59;11.70;99.90
9901;DHT22;4989;48.772;9.154;2023-11-19T07:25:01;11.70;99.90
9901;DHT22;4989;48.772;9.154;2023-11-19T07:30:05;11.70;99.90
9901;DHT22;4989;48.772;9.154;2023-11-19T07:35:09;11.70;99.90
9901;DHT22;4989;48.772;9.154;2023-11-19T07:40:11;11.70;99.90
9901;DHT22;4989;48.772;9.154;2023-11-19T07:45:14;11.80;99.90
9901;DHT22;4989;48.772;9.154;2023-11-19T07:50:16;11.80;99.90
9901;DHT22;4989;48.772;9.154;2023-11-19T07:55:21;11.90;99.90
9901;DHT22;4989;48.772;9.154;2023-11-19T08:00:23;11.90;99.90
9901;DHT22;4989;48.772;9.154;2023-11-19T08:05:25;12.00;99.90
9901;DHT22;4989;48.772;9.154;2023-11-19T08:10:28;12.00;99.90
9901;DHT22;4989;48.772;9.154;2023-11-19T08:15:30;12.10;99.90
9901;DHT22;4989;48.772;9.154;2023-11-19T08:20:33;12.20;99.90
9901;DHT22;4989;48.772;9.154;2023-11-19T08:25:36;12.30;99.90
9901;DHT22;4989;48.772;9.154;2023-11-19T08:30:38;12.40;99.90
9901;DHT22;4989;48.772;9.154;2023-11-19T08:35:40;12.50;99.90
9901;DHT22;4989;48.772;9.154;2023-11-19T08:40:43;12.90;99.90
9901;DHT22;4989;48.772;9.154;2023-11-19T08:45:45;13.20;99.90
9901;DHT22;4989;48.772;9.154;2023-11-19T08:50:47;13.20;99.90
9901;DHT22;4989;48.772;9.154;2023-11-19T08:55:50;13.10;99.90
9901;DHT22;4989;48.772;9.154;2023-11-19T09:00:52;13.00;99.90
9901;DHT22;4989;48.772;9.154;2023-11-19T09:05:54;13.10;99.90
9901;DHT22;4989;48.772;9.154;2023-11-19T09:10:57;13.30;99.90
9901;DHT22;4989;48.772;9.154;2023-11-19T09:15:59;13.50;99.90
9901;DHT22;4989;48.772;9.154;2023-11-19T09:21:05;13.70;99.90
9901;DHT22;4989;48.772;9.154;2023-11-19T09:26:10;13.60;99.90
9901;DHT22;4989;48.772;9.154;2023-11-19T09:31:14;13.60;99.90
9901;DHT22;4989;48.772;9.154;2023-11-19T09:36:17;13.60;99.90
9901;DHT22;4989;48.772;9.154;2023-11-19T09:41:19;14.10;99.90
9901;DHT22;4989;48.772;9.154;2023-11-19T09:46:22;14.00;99.90
9901;DHT22;4989;48.772;9.154;2023-11-19T09:51:26;14.20;99.90
9901;DHT22;4989;48.772;9.154;2023-11-19T09:56:33;14.60;99.90
9901;DHT22;4989;48.772;9.154;2023-11-19T10:01:38;14.90;99.90
9901;DHT22;4989;48.772;9.154;2023-11-19T10:06:42;15.00;99.90
9901;DHT22;4989;48.772;9.154;2023-11-19T10:11:44;15.10;99.90
9901;DHT22;4989;48.772;9.154;2023-11-19T10:16:47;15.00;99.90
9901;DHT22;4989;48.772;9.154;2023-11-19T10:21:49;15.00;99.90
9901;DHT22;4989;48.772;9.154;2023-11-19T10:26:51;15.40;99.90
9901;DHT22;4989;48.772;9.154;2023-11-19T10:31:57;15.70;99.90
9901;DHT22;4989;48.772;9.154;2023-11-19T10:37:29;15.70;99.90
9901;DHT22;4989;48.772;9.154;2023-11-19T10:42:37;15.50;99.90
9901;DHT22;4989;48.772;9.154;2023-11-19T10:47:39;15.70;99.90
9901;DHT22;4989;48.772;9.154;2023-11-19T10:52:45;15.80;99.90
9901;DHT22;4989;48.772;9.154;2023-11-19T10:57:50;16.60;99.90
9901;DHT22;4989;48.772;9.154;2023-11-19T11:02:56;16.80;99.90
9901;DHT22;4989;48.772;9.154;2023-11-19T11:08:04;16.70;99.90
9901;DHT22;4989;48.772;9.154;2023-11-19T11:13:08;16.50;99.90
9901;DHT22;4989;48.772;9.154;2023-11-19T11:18:13;16.30;99.90
9901;DHT22;4989;48.772;9.154;2023-11-19T11:39:35;15.60;99.90
9901;DHT22;4989;48.772;9.154;2023-11-19T11:45:04;15.40;99.90
9901;DHT22;4989;48.772;9.154;2023-11-19T11:50:12;15.60;99.90
9901;DHT22;4989;48.772;9.154;2023-11-19T11:55:15;17.40;99.90
9901;DHT22;4989;48.772;9.154;2023-11-19T12:00:31;17.70;99.90
9901;DHT22;4989;48.772;9.154;2023-11-19T12:05:43;19.90;93.40
9901;DHT22;4989;48.772;9.154;2023-11-19T12:10:56;18.90;90.70
9901;DHT22;4989;48.772;9.154;2023-11-19T12:21:03;20.60;84.20
9901;DHT22;4989;48.772;9.154;2023-11-19T12:26:07;19.00;83.90
9901;DHT22;4989;48.772;9.154;2023-11-19T12:31:09;19.00;87.00
9901;DHT22;4989;48.772;9.154;2023-11-19T12:36:12;18.40;84.20
9901;DHT22;4989;48.772;9.154;2023-11-19T12:41:14;17.80;88.70
9901;DHT22;4989;48.772;9.154;2023-11-19T12:46:23;16.70;84.40
9901;DHT22;4989;48.772;9.154;2023-11-19T12:51:31;16.60;86.90
9901;DHT22;4989;48.772;9.154;2023-11-19T12:56:34;16.40;87.50
9901;DHT22;4989;48.772;9.154;2023-11-19T13:01:38;16.20;89.00
9901;DHT22;4989;48.772;9.154;2023-11-19T13:06:47;16.10;89.80
9901;DHT22;4989;48.772;9.154;2023-11-19T13:11:56;16.00;90.70
9901;DHT22;4989;48.772;9.154;2023-11-19T13:16:58;15.80;88.20
9901;DHT22;4989;48.772;9.154;2023-11-19T13:22:00;15.80;88.10
9901;DHT22;4989;48.772;9.154;2023-11-19T13:27:03;15.70;86.90
9901;DHT22;4989;48.772;9.154;2023-11-19T13:32:06;15.80;89.30
9901;DHT22;4989;48.772;9.154;2023-11-19T13:37:08;15.80;86.80
9901;DHT22;4989;48.772;9.154;2023-11-19T13:42:10;15.60;86.40
9901;DHT22;4989;48.772;9.154;2023-11-19T13:47:15;15.60;88.30
9901;DHT22;4989;48.772;9.154;2023-11-19T13:52:17;15.60;88.60
9901;DHT22;4989;48.772;9.154;2023-11-19T13:57:19;15.60;88.70
9901;DHT22;4989;48.772;9.154;2023-11-19T14:02:21;15.60;87.60
9901;DHT22;4989;48.772;9.154;2023-11-19T14:07:23;15.60;88.90
9901;DHT22;4989;48.772;9.154;2023-11-19T14:12:26;15.40;89.30
9901;DHT22;4989;48.772;9.154;2023-11-19T14:17:28;15.30;85.90
9901;DHT22;4989;48.772;9.154;2023-11-19T14:22:30;15.20;85.40
9901;DHT22;4989;48.772;9.154;2023-11-19T14:27:33;15.10;85.90
9901;DHT22;4989;48.772;9.154;2023-11-19T14:32:39;15.20;88.10
9901;DHT22;4989;48.772;9.154;2023-11-19T14:37:44;15.30;89.10
9901;DHT22;4989;48.772;9.154;2023-11-19T14:42:46;15.10;88.10
9901;DHT22;4989;48.772;9.154;2023-11-19T14:47:48;15.00;88.20
9901;DHT22;4989;48.772;9.154;2023-11-19T14:52:51;14.90;89.00
9901;DHT22;4989;48.772;9.154;2023-11-19T14:57:53;14.80;90.20
9901;DHT22;4989;48.772;9.154;2023-11-19T15:03:08;14.80;90.60
9901;DHT22;4989;48.772;9.154;2023-11-19T15:08:11;14.70;90.80
9901;DHT22;4989;48.772;9.154;2023-11-19T15:13:14;14.70;90.70
9901;DHT22;4989;48.772;9.154;2023-11-19T15:18:16;14.70;90.20
9901;DHT22;4989;48.772;9.154;2023-11-19T15:23:19;14.50;90.00
9901;DHT22;4989;48.772;9.154;2023-11-19T15:28:21;14.50;90.20
9901;DHT22;4989;48.772;9.154;2023-11-19T15:33:24;14.60;90.00
9901;DHT22;4989;48.772;9.154;2023-11-19T15:38:26;14.50;89.30
9901;DHT22;4989;48.772;9.154;2023-11-19T15:43:29;14.30;90.10
9901;DHT22;4989;48.772;9.154;2023-11-19T15:48:31;14.30;90.30
9901;DHT22;4989;48.772;9.154;2023-11-19T15:53:33;14.20;90.90
9901;DHT22;4989;48.772;9.154;2023-11-19T15:58:36;14.00;91.70
9901;DHT22;4989;48.772;9.154;2023-11-19T16:03:38;14.00;91.90
9901;DHT22;4989;48.772;9.154;2023-11-19T16:08:44;13.90;92.00
9901;DHT22;4989;48.772;9.154;2023-11-19T16:13:46;13.90;92.10
9901;DHT22;4989;48.772;9.154;2023-11-19T16:18:49;13.90;92.30
9901;DHT22;4989;48.772;9.154;2023-11-19T16:23:51;13.90;92.80
9901;DHT22;4989;48.772;9.154;2023-11-19T16:28:53;13.90;93.10
9901;DHT22;4989;48.772;9.154;2023-11-19T16:33:55;13.80;93.30
9901;DHT22;4989;48.772;9.154;2023-11-19T16:38:58;13.80;93.50
9901;DHT22;4989;48.772;9.154;2023-11-19T16:44:03;13.80;94.00
9901;DHT22;4989;48.772;9.154;2023-11-19T16:49:07;13.70;94.40
9901;DHT22;4989;48.772;9.154;2023-11-19T16:54:09;13.60;94.70
9901;DHT22;4989;48.772;9.154;2023-11-19T16:59:11;13.60;95.30
9901;DHT22;4989;48.772;9.154;2023-11-19T17:04:16;13.50;95.60
9901;DHT22;4989;48.772;9.154;2023-11-19T17:09:19;13.60;95.70
9901;DHT22;4989;48.772;9.154;2023-11-19T17:14:21;13.60;96.20
9901;DHT22;4989;48.772;9.154;2023-11-19T17:19:41;13.40;96.60
9901;DHT22;4989;48.772;9.154;2023-11-19T17:24:43;13.40;96.60
9901;DHT22;4989;48.772;9.154;2023-11-19T17:29:46;13.30;97.00
9901;DHT22;4989;48.772;9.154;2023-11-19T17:34:48;13.30;97.30
9901;DHT22;4989;48.772;9.154;2023-11-19T17:39:51;13.20;97.20
9901;DHT22;4989;48.772;9.154;2023-11-19T17:44:57;13.20;96.80
9901;DHT22;4989;48.772;9.154;2023-11-19T17:50:00;13.20;97.10
9901;DHT22;4989;48.772;9.154;2023-11-19T17:55:24;13.30;96.10
9901;DHT22;4989;48.772;9.154;2023-11-19T18:00:27;13.20;95.80
9901;DHT22;4989;48.772;9.154;2023-11-19T18:05:29;13.20;95.30
9901;DHT22;4989;48.772;9.154;2023-11-19T18:10:32;13.20;95.40
9901;DHT22;4989;48.772;9.154;2023-11-19T18:15:35;13.30;94.80
9901;DHT22;4989;48.772;9.154;2023-11-19T18:20:38;13.30;95.00
9901;DHT22;4989;48.772;9.154;2023-11-19T18:25:40;13.30;95.40
9901;DHT22;4989;48.772;9.154;2023-11-19T18:30:43;13.20;95.60
9901;DHT22;4989;48.772;9.154;2023-11-19T18:35:45;13.30;96.10
9901;DHT22;4989;48.772;9.154;2023-11-19T18:40:47;13.20;96.40
9901;DHT22;4989;48.772;9.154;2023-11-19T18:45:50;13.20;96.80
9901;DHT22;4989;48.772;9.154;2023-11-19T18:50:52;13.20;97.20
9901;DHT22;4989;48.772;9.154;2023-11-19T18:55:54;13.20;97.50
9901;DHT22;4989;48.772;9.154;2023-11-19T19:00:57;13.20;97.90
9901;DHT22;4989;48.772;9.154;2023-11-19T19:05:59;13.10;98.50
9901;DHT22;4989;48.772;9.154;2023-11-19T19:11:02;13.30;98.50
9901;DHT22;4989;48.772;9.154;2023-11-19T19:16:06;13.40;98.20
9901;DHT22;4989;48.772;9.154;2023-11-19T19:21:09;13.20;98.70
9901;DHT22;4989;48.772;9.154;2023-11-19T19:26:13;13.10;98.90
9901;DHT22;4989;48.772;9.154;2023-11-19T19:31:15;13.20;99.10
9901;DHT22;4989;48.772;9.154;2023-11-19T19:36:20;13.50;99.90
9901;DHT22;4989;48.772;9.154;2023-11-19T19:41:23;13.70;99.90
9901;DHT22;4989;48.772;9.154;2023-11-19T19:46:25;13.80;99.80
9901;DHT22;4989;48.772;9.154;2023-11-19T19:51:30;13.80;99.90
9901;DHT22;4989;48.772;9.154;2023-11-19T19:56:32;13.20;99.90
9901;DHT22;4989;48.772;9.154;2023-11-19T20:01:35;13.40;99.90
9901;DHT22;4989;48.772;9.154;2023-11-19T20:06:38;13.40;99.90
9901;DHT22;4989;48.772;9.154;2023-11-19T20:11:41;13.50;99.90
9901;DHT22;4989;48.772;9.154;2023-11-19T20:16:45;13.40;99.90
9901;DHT22;4989;48.772;9.154;2023-11-19T20:21:48;12.80;99.90
9901;DHT22;4989;48.772;9.154;2023-11-19T20:26:50;12.50;99.90
9901;DHT22;4989;48.772;9.154;2023-11-19T20:31:55;12.60;99.90
9901;DHT22;4989;48.772;9.154;2023-11-19T20:36:57;12.30;99.90
9901;DHT22;4989;48.772;9.154;2023-11-19T20:42:00;12.30;99.90
9901;DHT22;4989;48.772;9.154;2023-11-19T20:47:06;12.50;99.90
9901;DHT22;4989;48.772;9.154;2023-11-19T20:52:08;12.30;99.90
9901;DHT22;4989;48.772;9.154;2023-11-19T20:57:10;12.40;99.90
9901;DHT22;4989;48.772;9.154;2023-11-19T21:02:13;12.30;99.90
9901;DHT22;4989;48.772;9.154;2023-11-19T21:07:17;12.10;99.90
9901;DHT22;4989;48.772;9.154;2023-11-19T21:12:19;12.10;99.90
9901;DHT22;4989;48.772;9.154;2023-11-19T21:17:22;12.00;99.90
9901;DHT22;4989;48.772;9.154;2023-11-19T21:22:25;11.90;99.90
9901;DHT22;4989;48.772;9.154;2023-11-19T21:27:27;11.80;99.90
9901;DHT22;4989;48.772;9.154;2023-11-19T21:32:31;11.90;99.90
9901;DHT22;4989;48.772;9.154;2023-11-19T21:37:34;11.80;99.90
9901;DHT22;4989;48.772;9.154;2023-11-19T21:42:37;11.90;99.90
9901;DHT22;4989;48.772;9.154;2023-11-19T21:47:39;11.90;99.90
9901;DHT22;4989;48.772;9.154;2023-11-19T21:52:41;11.90;99.90
9901;DHT22;4989;48.772;9.154;2023-11-19T21:57:44;11.90;99.90
9901;DHT22;4989;48.772;9.154;2023-11-19T22:02:46;11.90;99.90
9901;DHT22;4989;48.772;9.154;2023-11-19T22:07:48;12.00;99.90
9901;DHT22;4989;48.772;9.154;2023-11-19T22:12:51;11.90;99.90
9901;DHT22;4989;48.772;9.154;2023-11-19T22:17:53;11.90;99.90
9901;DHT22;4989;48.772;9.154;2023-11-19T22:22:56;12.00;99.90
9901;DHT22;4989;48.772;9.154;2023-11-19T22:27:58;11.90;99.90
9901;DHT22;4989;48.772;9.154;2023-11-19T22:33:00;11.80;99.90
9901;DHT22;4989;48.772;9.154;2023-11-19T22:38:02;11.80;99.90
9901;DHT22;4989;48.772;9.154;2023-11-19T22:43:05;12.00;99.90
9901;DHT22;4989;48.772;9.154;2023-11-19T22:48:07;12.30;99.90
9901;DHT22;4989;48.772;9.154;2023-11-19T22:53:10;12.10;99.90
9901;DHT22;4989;48.772;9.154;2023-11-19T22:58:12;12.10;99.90
9901;DHT22;4989;48.772;9.154;2023-11-19T23:03:14;12.20;99.90
9901;DHT22;4989;48.772;9.154;2023-11-19T23:08:17;12.50;99.90
9901;DHT22;4989;48.772;9.154;2023-11-19T23:13:19;11.90;99.90
9901;DHT22;4989;48.772;9.154;2023-11-19T23:18:21;11.90;99.90
9901;DHT22;4989;48.772;9.154;2023-11-19T23:23:23;11.90;99.90
9901;DHT22;4989;48.772;9.154;2023-11-19T23:28:26;11.80;99.90
9901;DHT22;4989;48.772;9.154;2023-11-19T23:33:28;11.80;99.90
9901;DHT22;4989;48.772;9.154;2023-11-19T23:38:33;11.50;99.90
9901;DHT22;4989;48.772;9.154;2023-11-19T23:43:35;11.50;99.90
9901;DHT22;4989;48.772;9.154;2023-11-19T23:48:40;11.50;99.90
9901;DHT22;4989;48.772;9.154;2023-11-19T23:53:45;11.60;99.90
9901;DHT22;4989;48.772;9.154;2023-11-19T23:58:47;11.40;99.90
